N22318 KCMH-KCMH
Flight info
| Callsign | N22318 |
|---|---|
| Flight time | 0h 5m |
| Altitude | 4000 |
| Route | KCRW |
| Aircraft | C152/L-SFG/C |
Departure
| Time | 2026-04-30 00:52 |
|---|---|
| Airport | John Glenn Columbus International Airport (KCMH) |
Arrival
| Time | 2026-04-30 00:57 |
|---|---|
| Airport | John Glenn Columbus International Airport (KCMH) |
| Time | Latitude | Longitude | Altitude | Speed | Heading |
|---|---|---|---|---|---|
| 2026-04-30 00:44 | 39.99743 | -82.87729 | 819 ft | 0 kts | 95° |
| 2026-04-30 00:46 | 39.99743 | -82.87730 | 819 ft | 0 kts | 95° |
| 2026-04-30 00:47 | 39.99752 | -82.87701 | 819 ft | 6 kts | 4° |
| 2026-04-30 00:48 | 39.99816 | -82.87696 | 817 ft | 13 kts | 3° |
| 2026-04-30 00:48 | 39.99915 | -82.87686 | 815 ft | 10 kts | 356° |
| 2026-04-30 00:48 | 39.99929 | -82.87758 | 816 ft | 11 kts | 273° |
| 2026-04-30 00:48 | 39.99936 | -82.87877 | 816 ft | 10 kts | 280° |
| 2026-04-30 00:49 | 39.99980 | -82.87948 | 814 ft | 12 kts | 353° |
| 2026-04-30 00:49 | 40.00061 | -82.87941 | 813 ft | 10 kts | 7° |
| 2026-04-30 00:49 | 40.00085 | -82.87937 | 812 ft | 0 kts | 3° |
| 2026-04-30 00:50 | 40.00102 | -82.87936 | 812 ft | 7 kts | 3° |
| 2026-04-30 00:50 | 40.00162 | -82.87965 | 813 ft | 10 kts | 289° |
| 2026-04-30 00:50 | 40.00172 | -82.88124 | 815 ft | 38 kts | 274° |
| 2026-04-30 00:50 | 40.00194 | -82.88613 | 862 ft | 61 kts | 289° |
| 2026-04-30 00:51 | 40.00222 | -82.89170 | 983 ft | 65 kts | 283° |
| 2026-04-30 00:51 | 40.00301 | -82.89756 | 1105 ft | 64 kts | 304° |
| 2026-04-30 00:51 | 40.00648 | -82.89992 | 1222 ft | 63 kts | 4° |
| 2026-04-30 00:51 | 40.01078 | -82.89908 | 1331 ft | 61 kts | 8° |
| 2026-04-30 00:52 | 40.01495 | -82.89799 | 1507 ft | 61 kts | 2° |
| 2026-04-30 00:52 | 40.01826 | -82.89391 | 1625 ft | 83 kts | 72° |
| 2026-04-30 00:52 | 40.01667 | -82.88639 | 1755 ft | 87 kts | 102° |
| 2026-04-30 00:52 | 40.01496 | -82.87879 | 1888 ft | 90 kts | 98° |
| 2026-04-30 00:53 | 40.01254 | -82.87097 | 1837 ft | 97 kts | 133° |
| 2026-04-30 00:53 | 40.00639 | -82.86922 | 1508 ft | 89 kts | 210° |
| 2026-04-30 00:53 | 40.00201 | -82.87480 | 993 ft | 90 kts | 252° |
| 2026-04-30 00:53 | 40.00173 | -82.88143 | 823 ft | 56 kts | 277° |
| 2026-04-30 00:54 | 40.00197 | -82.88597 | 825 ft | 59 kts | 279° |
| 2026-04-30 00:54 | 40.00222 | -82.89123 | 952 ft | 59 kts | 287° |
| 2026-04-30 00:54 | 40.00272 | -82.89660 | 1058 ft | 59 kts | 298° |
| 2026-04-30 00:54 | 40.00595 | -82.89854 | 1161 ft | 57 kts | 11° |
| 2026-04-30 00:55 | 40.00978 | -82.89713 | 1254 ft | 58 kts | 15° |
| 2026-04-30 00:55 | 40.01367 | -82.89539 | 1367 ft | 63 kts | 14° |
| 2026-04-30 00:55 | 40.01605 | -82.88395 | 1528 ft | 85 kts | 94° |
| 2026-04-30 00:56 | 40.01516 | -82.87642 | 1622 ft | 84 kts | 94° |
| 2026-04-30 00:56 | 40.01380 | -82.86876 | 1697 ft | 91 kts | 109° |
| 2026-04-30 00:56 | 40.00904 | -82.86451 | 1632 ft | 73 kts | 192° |
| 2026-04-30 00:56 | 40.00426 | -82.86559 | 1363 ft | 77 kts | 203° |
| 2026-04-30 00:57 | 40.00109 | -82.86982 | 1071 ft | 61 kts | 266° |
| 2026-04-30 00:57 | 40.00130 | -82.87468 | 928 ft | 54 kts | 287° |
| 2026-04-30 00:57 | 40.00161 | -82.87979 | 802 ft | 55 kts | 282° |
| 2026-04-30 00:57 | 40.00186 | -82.88384 | 805 ft | 49 kts | 274° |
| 2026-04-30 00:58 | 40.00211 | -82.88870 | 909 ft | 54 kts | 282° |
| 2026-04-30 00:58 | 40.00241 | -82.89375 | 1062 ft | 56 kts | 283° |
| 2026-04-30 00:58 | 40.00486 | -82.89725 | 1180 ft | 59 kts | 349° |
| 2026-04-30 00:58 | 40.00905 | -82.89610 | 1301 ft | 64 kts | 11° |
| 2026-04-30 00:59 | 40.01317 | -82.89430 | 1511 ft | 61 kts | 8° |
| 2026-04-30 00:59 | 40.01718 | -82.89219 | 1644 ft | 66 kts | 22° |
| 2026-04-30 00:59 | 40.01926 | -82.88666 | 1814 ft | 76 kts | 82° |
| 2026-04-30 00:59 | 40.01839 | -82.87925 | 1924 ft | 86 kts | 93° |
| 2026-04-30 01:00 | 40.01714 | -82.87141 | 2031 ft | 92 kts | 92° |
| 2026-04-30 01:00 | 40.01628 | -82.86313 | 2168 ft | 91 kts | 90° |
| 2026-04-30 01:00 | 40.01535 | -82.85507 | 2347 ft | 88 kts | 90° |
| 2026-04-30 01:00 | 40.01445 | -82.84713 | 2506 ft | 90 kts | 92° |
| 2026-04-30 01:01 | 40.01347 | -82.83921 | 2668 ft | 88 kts | 91° |
| 2026-04-30 01:01 | 40.01247 | -82.83147 | 2808 ft | 88 kts | 92° |
| 2026-04-30 01:01 | 40.01154 | -82.82343 | 2922 ft | 89 kts | 90° |
| 2026-04-30 01:01 | 40.01059 | -82.81592 | 3011 ft | 68 kts | 94° |
| 2026-04-30 01:02 | 40.00914 | -82.81124 | 2591 ft | 16 kts | 288° |
| 2026-04-30 01:02 | 40.00796 | -82.81014 | 953 ft | 14 kts | 235° |